KLOL/LOL METAR and TAF weather

Enter ICAO airport designator
Station Type Date Time Source
KLOL METAR 2021/08/01 17:53 UTC NOAA

KLOL 011753Z AUTO VRB03KT 10SM CLR 23/16 A3026 RMK AO2 SLP210 T02330156 10233 20178 50002


Station Type Date Time Source
KLOL Decoded METAR 2021/08/01 17:53 UTC NOAA

LOVELOCK DERBY FIELD, NV, United States (KLOL) 40-04N 118-34W 1189M
Aug 01, 2021 - 01:53 PM EDT / 2021.08.01 1753 UTC
Wind: Variable at 3 MPH (3 KT):0
Visibility: 10 mile(s):0
Sky conditions: clear
Temperature: 73.9 F (23.3 C)
Dew Point: 60.1 F (15.6 C)
Relative Humidity: 61%
Pressure (altimeter): 30.26 in. Hg (1024 hPa)
Pressure tendency: 0.01 inches (0.2 hPa) higher than three hours ago
ob: KLOL 011753Z AUTO VRB03KT 10SM CLR 23/16 A3026 RMK AO2 SLP210 T02330156 10233 20178 50002
cycle: 18

Station Type Date Time Source
KLOL TAF 2010/01/05 05:22 UTC NOAA

TAF KLOL 050522Z 0506/0606 00000KT 1/4SM FZFG VV001
FM052000 VRB03KT 3SM BR OVC002
AMD NOT SKED

Example: see airport list